sensor_id;sensor_type;location;lat;lon;timestamp;temperature;humidity
45409;DHT22;31162;51.076;3.784;2022-07-12T00:01:29;19.40;99.90
45409;DHT22;31162;51.076;3.784;2022-07-12T00:03:55;19.40;99.90
45409;DHT22;31162;51.076;3.784;2022-07-12T00:06:20;19.20;99.90
45409;DHT22;31162;51.076;3.784;2022-07-12T00:08:46;18.90;99.90
45409;DHT22;31162;51.076;3.784;2022-07-12T00:11:11;18.80;99.90
45409;DHT22;31162;51.076;3.784;2022-07-12T00:13:37;18.90;99.90
45409;DHT22;31162;51.076;3.784;2022-07-12T00:16:03;19.00;99.90
45409;DHT22;31162;51.076;3.784;2022-07-12T00:18:29;19.10;99.90
45409;DHT22;31162;51.076;3.784;2022-07-12T00:20:54;19.20;99.90
45409;DHT22;31162;51.076;3.784;2022-07-12T00:23:20;19.30;99.90
45409;DHT22;31162;51.076;3.784;2022-07-12T00:25:45;19.20;99.90
45409;DHT22;31162;51.076;3.784;2022-07-12T00:28:11;19.00;99.90
45409;DHT22;31162;51.076;3.784;2022-07-12T00:30:37;19.00;99.90
45409;DHT22;31162;51.076;3.784;2022-07-12T00:33:03;18.90;99.90
45409;DHT22;31162;51.076;3.784;2022-07-12T00:35:28;18.90;99.90
45409;DHT22;31162;51.076;3.784;2022-07-12T00:37:54;18.70;99.90
45409;DHT22;31162;51.076;3.784;2022-07-12T00:40:20;18.60;99.90
45409;DHT22;31162;51.076;3.784;2022-07-12T00:42:46;18.70;99.90
45409;DHT22;31162;51.076;3.784;2022-07-12T00:45:12;18.90;99.90
45409;DHT22;31162;51.076;3.784;2022-07-12T00:47:43;18.90;99.90
45409;DHT22;31162;51.076;3.784;2022-07-12T00:52:37;18.80;99.90
45409;DHT22;31162;51.076;3.784;2022-07-12T00:55:04;18.70;99.90
45409;DHT22;31162;51.076;3.784;2022-07-12T00:57:32;18.80;99.90
45409;DHT22;31162;51.076;3.784;2022-07-12T00:59:58;18.80;99.90
45409;DHT22;31162;51.076;3.784;2022-07-12T01:02:24;18.70;99.90
45409;DHT22;31162;51.076;3.784;2022-07-12T01:04:51;18.70;99.90
45409;DHT22;31162;51.076;3.784;2022-07-12T01:07:17;18.70;99.90
45409;DHT22;31162;51.076;3.784;2022-07-12T01:09:44;18.60;99.90
45409;DHT22;31162;51.076;3.784;2022-07-12T01:12:10;18.60;99.90
45409;DHT22;31162;51.076;3.784;2022-07-12T01:14:37;18.50;99.90
45409;DHT22;31162;51.076;3.784;2022-07-12T01:17:06;18.50;99.90
45409;DHT22;31162;51.076;3.784;2022-07-12T01:19:32;18.40;99.90
45409;DHT22;31162;51.076;3.784;2022-07-12T01:22:01;18.40;99.90
45409;DHT22;31162;51.076;3.784;2022-07-12T01:24:27;18.40;99.90
45409;DHT22;31162;51.076;3.784;2022-07-12T01:26:53;18.40;99.90
45409;DHT22;31162;51.076;3.784;2022-07-12T01:29:19;18.30;99.90
45409;DHT22;31162;51.076;3.784;2022-07-12T01:31:45;18.20;99.90
45409;DHT22;31162;51.076;3.784;2022-07-12T01:34:12;18.20;99.90
45409;DHT22;31162;51.076;3.784;2022-07-12T01:36:39;18.20;99.90
45409;DHT22;31162;51.076;3.784;2022-07-12T01:39:05;18.30;99.90
45409;DHT22;31162;51.076;3.784;2022-07-12T01:41:32;18.30;99.90
45409;DHT22;31162;51.076;3.784;2022-07-12T01:43:58;18.20;99.90
45409;DHT22;31162;51.076;3.784;2022-07-12T01:46:24;18.20;99.90
45409;DHT22;31162;51.076;3.784;2022-07-12T01:48:49;18.20;99.90
45409;DHT22;31162;51.076;3.784;2022-07-12T01:51:15;18.10;99.90
45409;DHT22;31162;51.076;3.784;2022-07-12T01:53:41;18.00;99.90
45409;DHT22;31162;51.076;3.784;2022-07-12T01:56:07;18.00;99.90
45409;DHT22;31162;51.076;3.784;2022-07-12T01:58:32;18.00;99.90
45409;DHT22;31162;51.076;3.784;2022-07-12T02:00:58;17.90;99.90
45409;DHT22;31162;51.076;3.784;2022-07-12T02:03:24;18.00;99.90
45409;DHT22;31162;51.076;3.784;2022-07-12T02:05:50;18.00;99.90
45409;DHT22;31162;51.076;3.784;2022-07-12T02:08:16;17.90;99.90
45409;DHT22;31162;51.076;3.784;2022-07-12T02:10:42;17.80;99.90
45409;DHT22;31162;51.076;3.784;2022-07-12T02:13:09;17.70;99.90
45409;DHT22;31162;51.076;3.784;2022-07-12T02:15:36;17.70;99.90
45409;DHT22;31162;51.076;3.784;2022-07-12T02:18:01;17.60;99.90
45409;DHT22;31162;51.076;3.784;2022-07-12T02:20:27;17.60;99.90
45409;DHT22;31162;51.076;3.784;2022-07-12T02:22:53;17.60;99.90
45409;DHT22;31162;51.076;3.784;2022-07-12T02:25:21;17.50;99.90
45409;DHT22;31162;51.076;3.784;2022-07-12T02:27:47;17.40;99.90
45409;DHT22;31162;51.076;3.784;2022-07-12T02:30:12;17.40;99.90
45409;DHT22;31162;51.076;3.784;2022-07-12T02:32:38;17.40;99.90
45409;DHT22;31162;51.076;3.784;2022-07-12T02:35:05;17.40;99.90
45409;DHT22;31162;51.076;3.784;2022-07-12T02:37:31;17.40;99.90
45409;DHT22;31162;51.076;3.784;2022-07-12T02:39:56;17.40;99.90
45409;DHT22;31162;51.076;3.784;2022-07-12T02:42:41;17.40;99.90
45409;DHT22;31162;51.076;3.784;2022-07-12T02:45:06;17.40;99.90
45409;DHT22;31162;51.076;3.784;2022-07-12T02:47:32;17.30;99.90
45409;DHT22;31162;51.076;3.784;2022-07-12T02:49:58;17.20;99.90
45409;DHT22;31162;51.076;3.784;2022-07-12T02:52:24;17.20;99.90
45409;DHT22;31162;51.076;3.784;2022-07-12T02:54:50;17.20;99.90
45409;DHT22;31162;51.076;3.784;2022-07-12T02:57:15;17.20;99.90
45409;DHT22;31162;51.076;3.784;2022-07-12T02:59:41;17.30;99.90
45409;DHT22;31162;51.076;3.784;2022-07-12T03:02:07;17.30;99.90
45409;DHT22;31162;51.076;3.784;2022-07-12T03:04:32;17.20;99.90
45409;DHT22;31162;51.076;3.784;2022-07-12T03:06:58;17.30;99.90
45409;DHT22;31162;51.076;3.784;2022-07-12T03:09:23;17.20;99.90
45409;DHT22;31162;51.076;3.784;2022-07-12T03:11:49;17.20;99.90
45409;DHT22;31162;51.076;3.784;2022-07-12T03:14:15;17.20;99.90
45409;DHT22;31162;51.076;3.784;2022-07-12T03:16:40;17.20;99.90
45409;DHT22;31162;51.076;3.784;2022-07-12T03:19:06;17.10;99.90
45409;DHT22;31162;51.076;3.784;2022-07-12T03:21:32;16.90;99.90
45409;DHT22;31162;51.076;3.784;2022-07-12T03:23:57;16.80;99.90
45409;DHT22;31162;51.076;3.784;2022-07-12T03:26:23;16.90;99.90
45409;DHT22;31162;51.076;3.784;2022-07-12T03:28:49;16.80;99.90
45409;DHT22;31162;51.076;3.784;2022-07-12T03:31:14;16.80;99.90
45409;DHT22;31162;51.076;3.784;2022-07-12T03:33:40;16.80;99.90
45409;DHT22;31162;51.076;3.784;2022-07-12T03:36:06;16.80;99.90
45409;DHT22;31162;51.076;3.784;2022-07-12T03:38:34;16.90;99.90
45409;DHT22;31162;51.076;3.784;2022-07-12T03:41:00;16.90;99.90
45409;DHT22;31162;51.076;3.784;2022-07-12T03:43:26;16.90;99.90
45409;DHT22;31162;51.076;3.784;2022-07-12T03:45:52;16.90;99.90
45409;DHT22;31162;51.076;3.784;2022-07-12T03:48:18;17.00;99.90
45409;DHT22;31162;51.076;3.784;2022-07-12T03:50:43;17.00;99.90
45409;DHT22;31162;51.076;3.784;2022-07-12T03:53:11;16.90;99.90
45409;DHT22;31162;51.076;3.784;2022-07-12T03:55:36;16.80;99.90
45409;DHT22;31162;51.076;3.784;2022-07-12T03:58:03;16.80;99.90
45409;DHT22;31162;51.076;3.784;2022-07-12T04:00:28;16.70;99.90
45409;DHT22;31162;51.076;3.784;2022-07-12T04:02:54;16.80;99.90
45409;DHT22;31162;51.076;3.784;2022-07-12T04:05:20;16.80;99.90
45409;DHT22;31162;51.076;3.784;2022-07-12T04:07:46;16.80;99.90
45409;DHT22;31162;51.076;3.784;2022-07-12T04:10:11;16.80;99.90
45409;DHT22;31162;51.076;3.784;2022-07-12T04:12:37;16.90;99.90
45409;DHT22;31162;51.076;3.784;2022-07-12T04:15:04;17.00;99.90
45409;DHT22;31162;51.076;3.784;2022-07-12T04:17:30;17.20;99.90
45409;DHT22;31162;51.076;3.784;2022-07-12T04:19:56;17.30;99.90
45409;DHT22;31162;51.076;3.784;2022-07-12T04:22:21;17.40;99.90
45409;DHT22;31162;51.076;3.784;2022-07-12T04:24:47;17.50;99.90
45409;DHT22;31162;51.076;3.784;2022-07-12T04:27:15;17.60;99.90
45409;DHT22;31162;51.076;3.784;2022-07-12T04:29:41;17.70;99.90
45409;DHT22;31162;51.076;3.784;2022-07-12T04:32:07;17.70;99.90
45409;DHT22;31162;51.076;3.784;2022-07-12T04:34:32;17.70;99.90
45409;DHT22;31162;51.076;3.784;2022-07-12T04:36:58;17.90;99.90
45409;DHT22;31162;51.076;3.784;2022-07-12T04:39:24;18.10;99.90
45409;DHT22;31162;51.076;3.784;2022-07-12T04:41:49;18.10;99.90
45409;DHT22;31162;51.076;3.784;2022-07-12T04:44:15;18.10;99.90
45409;DHT22;31162;51.076;3.784;2022-07-12T04:46:41;18.10;99.90
45409;DHT22;31162;51.076;3.784;2022-07-12T04:49:06;18.30;99.90
45409;DHT22;31162;51.076;3.784;2022-07-12T04:51:32;18.50;99.90
45409;DHT22;31162;51.076;3.784;2022-07-12T04:53:58;18.50;99.90
45409;DHT22;31162;51.076;3.784;2022-07-12T04:56:23;18.60;99.90
45409;DHT22;31162;51.076;3.784;2022-07-12T04:58:49;18.80;99.90
45409;DHT22;31162;51.076;3.784;2022-07-12T05:01:15;18.90;99.90
45409;DHT22;31162;51.076;3.784;2022-07-12T05:03:41;19.10;99.90
45409;DHT22;31162;51.076;3.784;2022-07-12T05:06:07;19.20;99.90
45409;DHT22;31162;51.076;3.784;2022-07-12T05:08:32;19.50;99.90
45409;DHT22;31162;51.076;3.784;2022-07-12T05:10:59;19.70;99.90
45409;DHT22;31162;51.076;3.784;2022-07-12T05:13:25;19.90;99.90
45409;DHT22;31162;51.076;3.784;2022-07-12T05:15:51;20.00;99.90
45409;DHT22;31162;51.076;3.784;2022-07-12T05:18:16;20.20;99.90
45409;DHT22;31162;51.076;3.784;2022-07-12T05:20:42;20.30;99.90
45409;DHT22;31162;51.076;3.784;2022-07-12T05:23:07;20.50;99.90
45409;DHT22;31162;51.076;3.784;2022-07-12T05:25:33;20.50;99.90
45409;DHT22;31162;51.076;3.784;2022-07-12T05:27:59;20.60;99.90
45409;DHT22;31162;51.076;3.784;2022-07-12T05:30:24;20.70;99.90
45409;DHT22;31162;51.076;3.784;2022-07-12T05:32:51;20.80;99.90
45409;DHT22;31162;51.076;3.784;2022-07-12T05:35:17;20.90;99.90
45409;DHT22;31162;51.076;3.784;2022-07-12T05:37:43;21.00;99.90
45409;DHT22;31162;51.076;3.784;2022-07-12T05:40:09;21.10;99.90
45409;DHT22;31162;51.076;3.784;2022-07-12T05:42:35;21.10;99.90
45409;DHT22;31162;51.076;3.784;2022-07-12T05:45:00;21.10;99.90
45409;DHT22;31162;51.076;3.784;2022-07-12T05:47:26;21.00;99.90
45409;DHT22;31162;51.076;3.784;2022-07-12T05:49:52;20.90;99.90
45409;DHT22;31162;51.076;3.784;2022-07-12T05:52:17;20.80;99.90
45409;DHT22;31162;51.076;3.784;2022-07-12T05:55:02;20.70;99.90
45409;DHT22;31162;51.076;3.784;2022-07-12T05:57:27;20.60;99.90
45409;DHT22;31162;51.076;3.784;2022-07-12T05:59:54;20.60;99.90
45409;DHT22;31162;51.076;3.784;2022-07-12T06:02:19;20.70;99.90
45409;DHT22;31162;51.076;3.784;2022-07-12T06:04:45;20.80;99.90
45409;DHT22;31162;51.076;3.784;2022-07-12T06:07:10;21.00;99.90
45409;DHT22;31162;51.076;3.784;2022-07-12T06:09:36;21.20;99.90
45409;DHT22;31162;51.076;3.784;2022-07-12T06:12:02;22.50;99.90
45409;DHT22;31162;51.076;3.784;2022-07-12T06:14:28;22.90;99.90
45409;DHT22;31162;51.076;3.784;2022-07-12T06:16:54;22.60;99.90
45409;DHT22;31162;51.076;3.784;2022-07-12T06:19:19;22.50;99.90
45409;DHT22;31162;51.076;3.784;2022-07-12T06:21:45;22.60;99.90
45409;DHT22;31162;51.076;3.784;2022-07-12T06:24:10;22.60;99.90
45409;DHT22;31162;51.076;3.784;2022-07-12T06:26:36;22.40;99.90
45409;DHT22;31162;51.076;3.784;2022-07-12T06:29:02;22.30;99.90
45409;DHT22;31162;51.076;3.784;2022-07-12T06:31:28;22.50;99.90
45409;DHT22;31162;51.076;3.784;2022-07-12T06:33:53;22.60;99.90
45409;DHT22;31162;51.076;3.784;2022-07-12T06:36:19;22.70;99.90
45409;DHT22;31162;51.076;3.784;2022-07-12T06:38:45;22.90;99.90
45409;DHT22;31162;51.076;3.784;2022-07-12T06:41:10;23.20;99.90
45409;DHT22;31162;51.076;3.784;2022-07-12T06:43:36;24.50;99.90
45409;DHT22;31162;51.076;3.784;2022-07-12T06:46:02;26.00;99.90
45409;DHT22;31162;51.076;3.784;2022-07-12T06:48:27;28.10;99.90
45409;DHT22;31162;51.076;3.784;2022-07-12T06:50:54;30.30;99.90
45409;DHT22;31162;51.076;3.784;2022-07-12T06:53:19;31.20;97.30
45409;DHT22;31162;51.076;3.784;2022-07-12T06:55:45;32.50;94.30
45409;DHT22;31162;51.076;3.784;2022-07-12T06:58:11;34.10;91.40
45409;DHT22;31162;51.076;3.784;2022-07-12T07:00:37;35.50;88.00
45409;DHT22;31162;51.076;3.784;2022-07-12T07:03:06;36.50;83.60
45409;DHT22;31162;51.076;3.784;2022-07-12T07:05:31;37.60;80.20
45409;DHT22;31162;51.076;3.784;2022-07-12T07:07:57;38.20;77.60
45409;DHT22;31162;51.076;3.784;2022-07-12T07:10:23;38.60;75.40
45409;DHT22;31162;51.076;3.784;2022-07-12T07:12:48;39.40;73.30
45409;DHT22;31162;51.076;3.784;2022-07-12T07:15:14;38.60;71.30
45409;DHT22;31162;51.076;3.784;2022-07-12T07:17:41;37.90;73.20
45409;DHT22;31162;51.076;3.784;2022-07-12T07:20:11;38.10;72.80
45409;DHT22;31162;51.076;3.784;2022-07-12T07:22:37;37.70;71.60
45409;DHT22;31162;51.076;3.784;2022-07-12T07:25:04;36.80;73.30
45409;DHT22;31162;51.076;3.784;2022-07-12T07:27:29;37.10;71.30
45409;DHT22;31162;51.076;3.784;2022-07-12T07:29:55;35.90;72.80
45409;DHT22;31162;51.076;3.784;2022-07-12T07:32:39;34.70;74.80
45409;DHT22;31162;51.076;3.784;2022-07-12T07:35:05;33.30;76.20
45409;DHT22;31162;51.076;3.784;2022-07-12T07:37:32;33.00;77.90
45409;DHT22;31162;51.076;3.784;2022-07-12T07:39:58;33.20;78.20
45409;DHT22;31162;51.076;3.784;2022-07-12T07:42:23;33.30;78.10
45409;DHT22;31162;51.076;3.784;2022-07-12T07:44:49;33.30;77.40
45409;DHT22;31162;51.076;3.784;2022-07-12T07:47:14;34.60;75.00
45409;DHT22;31162;51.076;3.784;2022-07-12T07:49:40;36.40;74.30
45409;DHT22;31162;51.076;3.784;2022-07-12T07:52:06;38.50;72.10
45409;DHT22;31162;51.076;3.784;2022-07-12T07:54:32;40.00;69.10
45409;DHT22;31162;51.076;3.784;2022-07-12T07:56:58;41.20;67.00
45409;DHT22;31162;51.076;3.784;2022-07-12T07:59:23;41.20;65.40
45409;DHT22;31162;51.076;3.784;2022-07-12T08:01:49;39.60;66.50
45409;DHT22;31162;51.076;3.784;2022-07-12T08:04:19;39.90;67.10
45409;DHT22;31162;51.076;3.784;2022-07-12T08:06:47;41.00;66.40
45409;DHT22;31162;51.076;3.784;2022-07-12T08:09:14;40.90;64.80
45409;DHT22;31162;51.076;3.784;2022-07-12T08:11:40;40.00;64.90
45409;DHT22;31162;51.076;3.784;2022-07-12T08:14:06;39.30;65.20
45409;DHT22;31162;51.076;3.784;2022-07-12T08:16:33;38.80;67.30
45409;DHT22;31162;51.076;3.784;2022-07-12T08:18:59;40.10;65.60
45409;DHT22;31162;51.076;3.784;2022-07-12T08:21:26;41.20;64.10
45409;DHT22;31162;51.076;3.784;2022-07-12T08:23:51;41.40;63.20
45409;DHT22;31162;51.076;3.784;2022-07-12T08:26:19;40.30;64.00
45409;DHT22;31162;51.076;3.784;2022-07-12T08:28:44;39.10;65.10
45409;DHT22;31162;51.076;3.784;2022-07-12T08:31:10;39.70;65.20
45409;DHT22;31162;51.076;3.784;2022-07-12T08:33:39;40.90;63.90
45409;DHT22;31162;51.076;3.784;2022-07-12T08:36:05;41.00;63.40
45409;DHT22;31162;51.076;3.784;2022-07-12T08:38:32;39.60;64.20
45409;DHT22;31162;51.076;3.784;2022-07-12T08:40:59;36.50;65.50
45409;DHT22;31162;51.076;3.784;2022-07-12T08:43:27;35.40;67.60
45409;DHT22;31162;51.076;3.784;2022-07-12T08:45:52;35.30;67.00
45409;DHT22;31162;51.076;3.784;2022-07-12T08:48:18;36.80;66.10
45409;DHT22;31162;51.076;3.784;2022-07-12T08:51:03;38.20;64.00
45409;DHT22;31162;51.076;3.784;2022-07-12T08:53:29;38.30;64.40
45409;DHT22;31162;51.076;3.784;2022-07-12T08:55:56;39.50;63.40
45409;DHT22;31162;51.076;3.784;2022-07-12T08:58:22;40.40;61.00
45409;DHT22;31162;51.076;3.784;2022-07-12T09:00:47;40.80;62.00
45409;DHT22;31162;51.076;3.784;2022-07-12T09:03:13;42.00;60.60
45409;DHT22;31162;51.076;3.784;2022-07-12T09:05:47;42.80;60.30
45409;DHT22;31162;51.076;3.784;2022-07-12T09:08:13;43.50;59.70
45409;DHT22;31162;51.076;3.784;2022-07-12T09:10:59;43.60;57.90
45409;DHT22;31162;51.076;3.784;2022-07-12T09:13:45;41.10;59.50
45409;DHT22;31162;51.076;3.784;2022-07-12T09:16:15;39.10;60.70
45409;DHT22;31162;51.076;3.784;2022-07-12T09:18:42;38.70;63.10
45409;DHT22;31162;51.076;3.784;2022-07-12T09:21:08;40.30;60.90
45409;DHT22;31162;51.076;3.784;2022-07-12T09:23:34;41.60;60.00
45409;DHT22;31162;51.076;3.784;2022-07-12T09:25:59;41.70;59.10
45409;DHT22;31162;51.076;3.784;2022-07-12T09:28:26;39.70;60.00
45409;DHT22;31162;51.076;3.784;2022-07-12T09:30:53;39.00;60.70
45409;DHT22;31162;51.076;3.784;2022-07-12T09:33:20;38.10;62.00
45409;DHT22;31162;51.076;3.784;2022-07-12T09:36:05;38.40;62.60
45409;DHT22;31162;51.076;3.784;2022-07-12T09:38:49;39.40;60.00
45409;DHT22;31162;51.076;3.784;2022-07-12T09:41:17;37.70;61.80
45409;DHT22;31162;51.076;3.784;2022-07-12T09:43:44;38.70;61.10
45409;DHT22;31162;51.076;3.784;2022-07-12T09:46:10;39.60;60.30
45409;DHT22;31162;51.076;3.784;2022-07-12T09:48:37;39.80;60.90
45409;DHT22;31162;51.076;3.784;2022-07-12T09:51:03;40.60;60.20
45409;DHT22;31162;51.076;3.784;2022-07-12T09:53:38;40.90;59.30
45409;DHT22;31162;51.076;3.784;2022-07-12T09:56:07;40.30;60.10
45409;DHT22;31162;51.076;3.784;2022-07-12T09:58:40;40.40;60.50
45409;DHT22;31162;51.076;3.784;2022-07-12T10:01:10;40.50;60.60
45409;DHT22;31162;51.076;3.784;2022-07-12T10:03:36;40.70;60.50
45409;DHT22;31162;51.076;3.784;2022-07-12T10:06:06;40.30;59.80
45409;DHT22;31162;51.076;3.784;2022-07-12T10:08:33;39.20;60.50
45409;DHT22;31162;51.076;3.784;2022-07-12T10:11:00;38.60;60.10
45409;DHT22;31162;51.076;3.784;2022-07-12T10:13:27;37.40;62.70
45409;DHT22;31162;51.076;3.784;2022-07-12T10:16:00;38.20;62.50
45409;DHT22;31162;51.076;3.784;2022-07-12T10:18:29;39.30;60.80
45409;DHT22;31162;51.076;3.784;2022-07-12T10:20:55;41.10;60.30
45409;DHT22;31162;51.076;3.784;2022-07-12T10:23:36;41.70;58.00
45409;DHT22;31162;51.076;3.784;2022-07-12T10:26:36;41.50;58.70
45409;DHT22;31162;51.076;3.784;2022-07-12T10:29:06;41.10;58.30
45409;DHT22;31162;51.076;3.784;2022-07-12T10:31:38;41.00;58.70
45409;DHT22;31162;51.076;3.784;2022-07-12T10:34:08;39.80;58.60
45409;DHT22;31162;51.076;3.784;2022-07-12T10:39:28;40.00;58.70
45409;DHT22;31162;51.076;3.784;2022-07-12T10:44:39;40.80;57.60
45409;DHT22;31162;51.076;3.784;2022-07-12T10:47:07;38.00;59.00
45409;DHT22;31162;51.076;3.784;2022-07-12T10:49:34;38.40;61.00
45409;DHT22;31162;51.076;3.784;2022-07-12T10:57:47;39.40;58.80
45409;DHT22;31162;51.076;3.784;2022-07-12T11:00:16;39.00;59.50
45409;DHT22;31162;51.076;3.784;2022-07-12T11:02:42;37.00;61.50
45409;DHT22;31162;51.076;3.784;2022-07-12T11:05:09;38.30;61.70
45409;DHT22;31162;51.076;3.784;2022-07-12T11:07:35;39.10;58.70
45409;DHT22;31162;51.076;3.784;2022-07-12T11:10:01;39.30;59.00
45409;DHT22;31162;51.076;3.784;2022-07-12T11:12:30;40.50;58.30
45409;DHT22;31162;51.076;3.784;2022-07-12T11:14:58;41.20;58.50
45409;DHT22;31162;51.076;3.784;2022-07-12T11:17:29;42.40;57.20
45409;DHT22;31162;51.076;3.784;2022-07-12T11:20:12;42.30;56.40
45409;DHT22;31162;51.076;3.784;2022-07-12T11:22:40;43.20;57.30
45409;DHT22;31162;51.076;3.784;2022-07-12T11:25:08;44.50;55.00
45409;DHT22;31162;51.076;3.784;2022-07-12T11:27:34;45.00;54.20
45409;DHT22;31162;51.076;3.784;2022-07-12T11:30:01;44.80;52.60
45409;DHT22;31162;51.076;3.784;2022-07-12T11:32:38;44.40;53.40
45409;DHT22;31162;51.076;3.784;2022-07-12T11:35:20;43.60;51.70
45409;DHT22;31162;51.076;3.784;2022-07-12T11:37:50;43.20;52.20
45409;DHT22;31162;51.076;3.784;2022-07-12T11:40:21;43.50;51.60
45409;DHT22;31162;51.076;3.784;2022-07-12T11:42:58;44.30;51.80
45409;DHT22;31162;51.076;3.784;2022-07-12T11:45:26;43.70;49.70
45409;DHT22;31162;51.076;3.784;2022-07-12T11:47:52;43.50;51.80
45409;DHT22;31162;51.076;3.784;2022-07-12T11:50:18;42.90;52.20
45409;DHT22;31162;51.076;3.784;2022-07-12T11:52:45;42.70;50.10
45409;DHT22;31162;51.076;3.784;2022-07-12T11:55:11;43.00;51.00
45409;DHT22;31162;51.076;3.784;2022-07-12T11:57:36;43.30;52.50
45409;DHT22;31162;51.076;3.784;2022-07-12T12:00:16;43.10;51.00
45409;DHT22;31162;51.076;3.784;2022-07-12T12:02:42;40.40;53.70
45409;DHT22;31162;51.076;3.784;2022-07-12T12:05:08;39.10;53.60
45409;DHT22;31162;51.076;3.784;2022-07-12T12:07:34;39.60;55.30
45409;DHT22;31162;51.076;3.784;2022-07-12T12:10:15;39.40;55.40
45409;DHT22;31162;51.076;3.784;2022-07-12T12:12:46;39.30;56.20
45409;DHT22;31162;51.076;3.784;2022-07-12T12:15:18;39.60;54.40
45409;DHT22;31162;51.076;3.784;2022-07-12T12:17:55;39.10;55.50
45409;DHT22;31162;51.076;3.784;2022-07-12T12:20:23;37.50;55.70
45409;DHT22;31162;51.076;3.784;2022-07-12T12:22:51;36.90;57.20
45409;DHT22;31162;51.076;3.784;2022-07-12T12:25:19;36.20;57.20
45409;DHT22;31162;51.076;3.784;2022-07-12T12:28:05;34.90;58.30
45409;DHT22;31162;51.076;3.784;2022-07-12T12:30:32;33.90;59.60
45409;DHT22;31162;51.076;3.784;2022-07-12T12:33:01;33.90;60.40
45409;DHT22;31162;51.076;3.784;2022-07-12T12:35:34;34.20;59.80
45409;DHT22;31162;51.076;3.784;2022-07-12T12:38:14;34.60;59.90
45409;DHT22;31162;51.076;3.784;2022-07-12T12:40:50;34.40;58.10
45409;DHT22;31162;51.076;3.784;2022-07-12T12:43:20;34.10;59.40
45409;DHT22;31162;51.076;3.784;2022-07-12T12:45:50;34.30;59.00
45409;DHT22;31162;51.076;3.784;2022-07-12T12:48:20;33.90;59.10
45409;DHT22;31162;51.076;3.784;2022-07-12T12:50:48;33.90;60.20
45409;DHT22;31162;51.076;3.784;2022-07-12T12:53:21;34.20;60.00
45409;DHT22;31162;51.076;3.784;2022-07-12T12:55:49;34.40;59.50
45409;DHT22;31162;51.076;3.784;2022-07-12T12:58:18;34.90;59.40
45409;DHT22;31162;51.076;3.784;2022-07-12T13:00:47;34.60;59.10
45409;DHT22;31162;51.076;3.784;2022-07-12T13:03:14;33.80;60.10
45409;DHT22;31162;51.076;3.784;2022-07-12T13:05:40;34.00;58.90
45409;DHT22;31162;51.076;3.784;2022-07-12T13:08:08;33.90;59.30
45409;DHT22;31162;51.076;3.784;2022-07-12T13:10:35;33.50;59.30
45409;DHT22;31162;51.076;3.784;2022-07-12T13:13:02;33.20;61.60
45409;DHT22;31162;51.076;3.784;2022-07-12T13:15:29;33.40;60.40
45409;DHT22;31162;51.076;3.784;2022-07-12T13:17:55;33.40;58.70
45409;DHT22;31162;51.076;3.784;2022-07-12T13:20:21;33.30;60.10
45409;DHT22;31162;51.076;3.784;2022-07-12T13:22:47;33.50;60.60
45409;DHT22;31162;51.076;3.784;2022-07-12T13:25:14;33.90;60.90
45409;DHT22;31162;51.076;3.784;2022-07-12T13:27:41;34.10;59.00
45409;DHT22;31162;51.076;3.784;2022-07-12T13:30:09;33.70;59.30
45409;DHT22;31162;51.076;3.784;2022-07-12T13:32:35;33.10;60.30
45409;DHT22;31162;51.076;3.784;2022-07-12T13:35:04;32.70;62.00
45409;DHT22;31162;51.076;3.784;2022-07-12T13:37:31;33.10;62.20
45409;DHT22;31162;51.076;3.784;2022-07-12T13:39:57;33.10;61.80
45409;DHT22;31162;51.076;3.784;2022-07-12T13:42:50;33.40;61.80
45409;DHT22;31162;51.076;3.784;2022-07-12T13:45:18;33.80;60.90
45409;DHT22;31162;51.076;3.784;2022-07-12T13:47:44;34.00;61.10
45409;DHT22;31162;51.076;3.784;2022-07-12T13:50:13;34.20;59.90
45409;DHT22;31162;51.076;3.784;2022-07-12T13:52:40;34.10;59.00
45409;DHT22;31162;51.076;3.784;2022-07-12T13:55:09;34.00;59.00
45409;DHT22;31162;51.076;3.784;2022-07-12T13:57:36;33.70;56.60
45409;DHT22;31162;51.076;3.784;2022-07-12T14:00:07;33.20;58.20
45409;DHT22;31162;51.076;3.784;2022-07-12T14:02:41;32.70;58.30
45409;DHT22;31162;51.076;3.784;2022-07-12T14:05:08;32.70;58.70
45409;DHT22;31162;51.076;3.784;2022-07-12T14:07:37;33.00;58.10
45409;DHT22;31162;51.076;3.784;2022-07-12T14:10:04;33.20;56.90
45409;DHT22;31162;51.076;3.784;2022-07-12T14:12:30;33.50;58.70
45409;DHT22;31162;51.076;3.784;2022-07-12T14:14:55;33.90;58.40
45409;DHT22;31162;51.076;3.784;2022-07-12T14:17:46;34.30;59.30
45409;DHT22;31162;51.076;3.784;2022-07-12T14:20:14;34.70;58.30
45409;DHT22;31162;51.076;3.784;2022-07-12T14:22:40;34.70;58.90
45409;DHT22;31162;51.076;3.784;2022-07-12T14:25:07;34.90;58.20
45409;DHT22;31162;51.076;3.784;2022-07-12T14:27:34;35.10;54.50
45409;DHT22;31162;51.076;3.784;2022-07-12T14:30:00;34.90;52.60
45409;DHT22;31162;51.076;3.784;2022-07-12T14:32:26;34.70;54.60
45409;DHT22;31162;51.076;3.784;2022-07-12T14:34:52;34.60;55.60
45409;DHT22;31162;51.076;3.784;2022-07-12T14:37:18;34.50;54.70
45409;DHT22;31162;51.076;3.784;2022-07-12T14:39:43;34.60;54.10
45409;DHT22;31162;51.076;3.784;2022-07-12T14:42:09;34.80;54.20
45409;DHT22;31162;51.076;3.784;2022-07-12T14:44:35;34.90;55.50
45409;DHT22;31162;51.076;3.784;2022-07-12T14:47:02;35.10;53.80
45409;DHT22;31162;51.076;3.784;2022-07-12T14:49:27;35.10;54.10
45409;DHT22;31162;51.076;3.784;2022-07-12T14:51:53;35.10;54.20
45409;DHT22;31162;51.076;3.784;2022-07-12T14:54:19;35.10;55.60
45409;DHT22;31162;51.076;3.784;2022-07-12T14:56:45;35.00;54.90
45409;DHT22;31162;51.076;3.784;2022-07-12T14:59:11;35.00;56.30
45409;DHT22;31162;51.076;3.784;2022-07-12T15:01:37;35.00;56.20
45409;DHT22;31162;51.076;3.784;2022-07-12T15:04:03;34.80;55.50
45409;DHT22;31162;51.076;3.784;2022-07-12T15:06:29;34.40;55.90
45409;DHT22;31162;51.076;3.784;2022-07-12T15:08:55;34.30;56.00
45409;DHT22;31162;51.076;3.784;2022-07-12T15:11:21;34.20;56.20
45409;DHT22;31162;51.076;3.784;2022-07-12T15:13:47;34.00;56.40
45409;DHT22;31162;51.076;3.784;2022-07-12T15:16:13;34.00;57.20
45409;DHT22;31162;51.076;3.784;2022-07-12T15:18:39;34.00;57.50
45409;DHT22;31162;51.076;3.784;2022-07-12T15:21:04;34.10;57.40
45409;DHT22;31162;51.076;3.784;2022-07-12T15:23:30;34.20;57.50
45409;DHT22;31162;51.076;3.784;2022-07-12T15:25:58;34.60;57.80
45409;DHT22;31162;51.076;3.784;2022-07-12T15:28:28;34.80;57.40
45409;DHT22;31162;51.076;3.784;2022-07-12T15:30:56;34.90;56.60
45409;DHT22;31162;51.076;3.784;2022-07-12T15:33:22;34.60;56.80
45409;DHT22;31162;51.076;3.784;2022-07-12T15:35:50;34.80;56.90
45409;DHT22;31162;51.076;3.784;2022-07-12T15:38:16;34.80;55.40
45409;DHT22;31162;51.076;3.784;2022-07-12T15:40:41;34.10;56.10
45409;DHT22;31162;51.076;3.784;2022-07-12T15:43:08;33.80;56.50
45409;DHT22;31162;51.076;3.784;2022-07-12T15:45:34;33.70;56.70